Time;durP1;ratioP1;P1;durP2;ratioP2;P2;SDS_P1;SDS_P2;PMS_P1;PMS_P2;Temp;Humidity;BMP_temperature;BMP_pressure;BME280_temperature;BME280_humidity;BME280_pressure;Samples;Min_cycle;Max_cycle;Signal;HPM_P1;HPM_P2
2023/07/30 00:01:14;;;;;;;11.80;4.30;;;16.70;99.90;;;;;;5034036;28;20041;-82
2023/07/30 00:03:40;;;;;;;11.98;4.40;;;16.70;99.90;;;;;;5019988;28;20393;-83
2023/07/30 00:06:05;;;;;;;10.30;4.50;;;16.70;99.90;;;;;;5017342;28;20110;-83
2023/07/30 00:08:31;;;;;;;13.10;4.50;;;16.70;99.90;;;;;;5032804;28;20110;-82
2023/07/30 00:10:58;;;;;;;10.55;3.53;;;16.80;99.90;;;;;;5035085;28;20041;-82
2023/07/30 00:13:24;;;;;;;9.70;4.50;;;16.70;99.90;;;;;;5015736;28;20045;-81
2023/07/30 00:15:50;;;;;;;11.52;4.07;;;16.60;99.90;;;;;;5033894;28;20029;-82
2023/07/30 00:18:16;;;;;;;11.45;4.35;;;16.60;99.90;;;;;;5033685;28;20045;-82
2023/07/30 00:20:43;;;;;;;9.27;3.97;;;16.60;99.90;;;;;;5017265;28;20060;-82
2023/07/30 00:23:09;;;;;;;12.18;4.15;;;16.60;99.90;;;;;;5015370;28;20041;-81
2023/07/30 00:25:35;;;;;;;10.85;4.25;;;16.60;99.90;;;;;;5013667;28;20129;-81
2023/07/30 00:28:00;;;;;;;10.27;4.00;;;16.60;99.90;;;;;;5013627;28;20079;-81
2023/07/30 00:30:26;;;;;;;11.50;4.65;;;16.60;99.90;;;;;;5021164;28;20490;-82
2023/07/30 00:32:51;;;;;;;14.55;4.68;;;16.60;99.90;;;;;;5033463;28;20041;-82
2023/07/30 00:35:17;;;;;;;11.95;4.38;;;16.50;99.90;;;;;;5030485;28;20387;-82
2023/07/30 00:37:43;;;;;;;11.40;4.53;;;16.50;99.90;;;;;;5032261;28;20112;-82
2023/07/30 00:40:08;;;;;;;10.38;4.30;;;16.50;99.90;;;;;;5025864;28;20041;-82
2023/07/30 00:42:34;;;;;;;9.75;4.45;;;16.40;99.90;;;;;;5015232;28;20426;-82
2023/07/30 00:45:00;;;;;;;10.10;4.30;;;16.40;99.90;;;;;;5002940;28;20052;-82
2023/07/30 00:47:26;;;;;;;14.68;4.65;;;16.40;99.90;;;;;;5032790;28;20104;-82
2023/07/30 00:49:52;;;;;;;13.02;4.85;;;16.40;99.90;;;;;;5031999;28;20087;-81
2023/07/30 00:52:21;;;;;;;10.57;4.50;;;16.40;99.90;;;;;;5031608;28;20084;-83
2023/07/30 00:54:48;;;;;;;11.40;4.40;;;16.30;99.90;;;;;;5029170;28;20045;-83
2023/07/30 00:57:15;;;;;;;12.15;4.82;;;16.30;99.90;;;;;;5012290;28;20060;-82
2023/07/30 00:59:41;;;;;;;11.40;4.55;;;16.30;99.90;;;;;;5012843;28;20052;-83
2023/07/30 01:02:07;;;;;;;11.18;5.35;;;16.30;99.90;;;;;;5021893;28;20041;-83
2023/07/30 01:04:33;;;;;;;11.93;4.35;;;16.30;99.90;;;;;;5015297;28;20052;-82
2023/07/30 01:06:58;;;;;;;15.20;4.95;;;16.20;99.90;;;;;;5032284;28;20041;-82
2023/07/30 01:09:24;;;;;;;12.02;4.75;;;16.30;99.90;;;;;;5033037;28;20501;-83
2023/07/30 01:11:51;;;;;;;11.57;4.63;;;16.20;99.90;;;;;;5015569;28;20041;-83
2023/07/30 01:14:19;;;;;;;14.90;5.00;;;16.20;99.90;;;;;;5013672;28;20037;-82
2023/07/30 01:16:45;;;;;;;16.20;4.90;;;16.20;99.90;;;;;;5018015;28;20029;-82
2023/07/30 01:19:10;;;;;;;16.65;4.90;;;16.20;99.90;;;;;;5034273;28;20489;-83
2023/07/30 01:21:37;;;;;;;14.02;4.95;;;16.20;99.90;;;;;;5031266;28;20388;-83
2023/07/30 01:24:03;;;;;;;18.02;5.57;;;16.20;99.90;;;;;;5007841;28;20041;-83
2023/07/30 01:27:03;;;;;;;12.45;5.13;;;16.10;99.90;;;;;;4995788;28;20502;-82
2023/07/30 01:29:40;;;;;;;14.63;4.75;;;16.10;99.90;;;;;;5012240;28;20057;-81
2023/07/30 01:32:09;;;;;;;13.52;4.32;;;16.10;99.90;;;;;;5004238;28;20073;-83
2023/07/30 01:34:37;;;;;;;12.80;4.65;;;16.10;99.90;;;;;;5012707;28;20046;-84
2023/07/30 01:37:04;;;;;;;13.65;4.20;;;16.20;99.90;;;;;;4996063;28;20061;-83
2023/07/30 01:39:32;;;;;;;15.40;5.40;;;16.10;99.90;;;;;;5013021;28;20489;-84
2023/07/30 01:41:58;;;;;;;14.45;5.22;;;16.10;99.90;;;;;;5001140;28;20033;-82
2023/07/30 01:44:23;;;;;;;12.43;4.60;;;16.10;99.90;;;;;;5018773;28;20044;-82
2023/07/30 01:46:49;;;;;;;18.63;4.88;;;16.10;99.90;;;;;;5016136;28;20034;-82
2023/07/30 01:49:14;;;;;;;14.57;4.57;;;16.10;99.90;;;;;;5012289;28;20508;-83
2023/07/30 01:51:40;;;;;;;14.13;4.50;;;16.10;99.90;;;;;;5012131;28;20092;-83
2023/07/30 01:54:06;;;;;;;13.10;4.80;;;16.00;99.90;;;;;;5031857;28;20044;-83
2023/07/30 01:56:31;;;;;;;15.25;5.20;;;16.00;99.90;;;;;;5013137;28;20485;-83
2023/07/30 01:58:57;;;;;;;15.00;5.00;;;16.00;99.90;;;;;;5032443;28;20440;-83
2023/07/30 02:01:22;;;;;;;15.77;4.63;;;16.00;99.90;;;;;;5026637;28;20069;-82
2023/07/30 02:03:48;;;;;;;15.55;4.80;;;16.00;99.90;;;;;;5009436;28;20396;-83
2023/07/30 02:06:13;;;;;;;14.85;4.85;;;16.00;99.90;;;;;;5030210;28;20033;-83
2023/07/30 02:08:39;;;;;;;13.75;5.00;;;16.00;99.90;;;;;;5030494;28;20030;-82
2023/07/30 02:11:04;;;;;;;17.42;5.80;;;16.00;99.90;;;;;;5023466;28;20049;-82
2023/07/30 02:13:30;;;;;;;13.48;4.50;;;16.00;99.90;;;;;;4997358;28;20044;-83
2023/07/30 02:15:56;;;;;;;13.90;4.40;;;15.80;99.90;;;;;;4995874;28;20165;-83
2023/07/30 02:18:21;;;;;;;14.77;5.05;;;15.90;99.90;;;;;;5017290;28;20037;-83
2023/07/30 02:20:47;;;;;;;13.48;4.40;;;15.90;99.90;;;;;;5032107;28;20049;-84
2023/07/30 02:23:16;;;;;;;17.70;4.43;;;15.90;99.90;;;;;;5008574;28;20421;-84
2023/07/30 02:25:41;;;;;;;14.07;4.40;;;15.90;99.90;;;;;;5015114;28;20049;-84
2023/07/30 02:28:07;;;;;;;13.77;4.45;;;15.90;99.90;;;;;;5026041;28;20422;-83
2023/07/30 02:30:34;;;;;;;12.05;4.03;;;16.00;99.90;;;;;;5028720;28;20383;-83
2023/07/30 02:32:59;;;;;;;15.20;4.45;;;16.00;99.90;;;;;;5026664;28;20598;-83
2023/07/30 02:35:25;;;;;;;16.55;4.72;;;15.90;99.90;;;;;;4996366;28;20120;-83
2023/07/30 02:37:50;;;;;;;13.60;3.85;;;15.90;99.90;;;;;;5029736;28;20064;-83
2023/07/30 02:40:16;;;;;;;16.20;4.70;;;15.90;99.90;;;;;;5031838;28;20045;-83
2023/07/30 02:42:42;;;;;;;17.65;4.35;;;15.90;99.90;;;;;;5027994;28;20301;-83
2023/07/30 02:45:08;;;;;;;12.57;3.90;;;15.80;99.90;;;;;;5030304;28;20044;-83
2023/07/30 02:47:33;;;;;;;14.93;4.50;;;15.80;99.90;;;;;;5025002;28;20390;-83
2023/07/30 02:49:59;;;;;;;17.38;5.38;;;15.80;99.90;;;;;;5030272;28;20117;-83
2023/07/30 02:52:24;;;;;;;13.38;3.95;;;15.80;99.90;;;;;;5029930;28;20034;-83
2023/07/30 02:54:50;;;;;;;12.50;3.90;;;15.90;99.90;;;;;;4995339;28;20044;-83
2023/07/30 02:57:15;;;;;;;14.00;3.95;;;15.80;99.90;;;;;;5013181;28;20042;-82
2023/07/30 02:59:41;;;;;;;14.05;4.10;;;15.90;99.90;;;;;;5025807;28;20042;-83
2023/07/30 03:02:07;;;;;;;15.25;4.28;;;15.90;99.90;;;;;;5015377;28;20034;-83
2023/07/30 03:04:33;;;;;;;13.30;4.13;;;15.90;99.90;;;;;;5015120;28;20049;-83
2023/07/30 03:06:58;;;;;;;16.38;4.53;;;15.90;99.90;;;;;;5015077;28;20046;-83
2023/07/30 03:09:24;;;;;;;17.23;4.05;;;15.90;99.90;;;;;;5026080;28;20041;-83
2023/07/30 03:11:50;;;;;;;13.30;3.88;;;15.90;99.90;;;;;;5034097;28;20037;-83
2023/07/30 03:14:16;;;;;;;12.57;4.13;;;15.90;99.90;;;;;;5031760;28;20029;-83
2023/07/30 03:16:42;;;;;;;12.43;3.25;;;15.90;99.90;;;;;;5035137;28;20577;-83
2023/07/30 03:19:07;;;;;;;12.07;4.00;;;15.90;99.90;;;;;;5029097;28;20076;-82
2023/07/30 03:21:33;;;;;;;12.55;3.90;;;16.00;99.90;;;;;;4998648;28;20038;-82
2023/07/30 03:23:58;;;;;;;14.65;3.58;;;15.90;99.90;;;;;;5016634;28;20143;-83
2023/07/30 03:26:24;;;;;;;15.85;4.18;;;15.90;99.90;;;;;;5027154;28;20050;-83
2023/07/30 03:28:50;;;;;;;10.40;3.63;;;15.90;99.90;;;;;;5018305;28;20551;-83
2023/07/30 03:31:15;;;;;;;13.07;3.70;;;15.90;99.90;;;;;;5020827;28;20034;-83
2023/07/30 03:33:45;;;;;;;15.50;4.95;;;16.00;99.90;;;;;;4998198;28;20517;-83
2023/07/30 03:36:13;;;;;;;14.32;3.35;;;15.90;99.90;;;;;;5018413;28;20102;-83
2023/07/30 03:38:39;;;;;;;12.20;3.67;;;15.90;99.90;;;;;;4998511;28;20038;-83
2023/07/30 03:41:06;;;;;;;13.85;3.95;;;15.80;99.90;;;;;;5021624;28;20038;-83
2023/07/30 03:43:32;;;;;;;14.77;3.50;;;15.90;99.90;;;;;;5015889;28;20053;-83
2023/07/30 03:45:57;;;;;;;12.10;3.78;;;15.80;99.90;;;;;;5023133;28;20444;-83
2023/07/30 03:48:23;;;;;;;13.88;3.85;;;15.80;99.90;;;;;;5033582;28;20041;-83
2023/07/30 03:50:48;;;;;;;10.30;2.95;;;15.80;99.90;;;;;;5016723;28;20406;-83
2023/07/30 03:53:14;;;;;;;14.02;4.10;;;15.80;99.90;;;;;;5011211;28;20030;-83
2023/07/30 03:55:40;;;;;;;12.13;3.42;;;15.80;99.90;;;;;;5017814;28;20050;-83
2023/07/30 03:58:06;;;;;;;14.05;4.38;;;15.70;99.90;;;;;;5010160;28;20076;-83
2023/07/30 04:00:32;;;;;;;13.38;3.90;;;15.80;99.90;;;;;;5011998;28;20076;-83
2023/07/30 04:02:58;;;;;;;12.88;3.53;;;15.80;99.90;;;;;;5014354;28;20057;-83
2023/07/30 04:05:23;;;;;;;11.32;3.40;;;15.70;99.90;;;;;;4997539;28;20037;-83
2023/07/30 04:07:49;;;;;;;17.73;4.00;;;15.70;99.90;;;;;;5031451;28;20092;-83
2023/07/30 04:10:15;;;;;;;11.45;3.55;;;15.70;99.90;;;;;;5032495;28;20049;-83
2023/07/30 04:12:40;;;;;;;12.35;3.55;;;15.70;99.90;;;;;;5014960;28;20037;-83
2023/07/30 04:15:06;;;;;;;13.98;3.42;;;15.70;99.90;;;;;;5019190;28;20566;-83
2023/07/30 04:17:32;;;;;;;13.95;3.65;;;15.60;99.90;;;;;;5026362;28;20033;-83
2023/07/30 04:19:57;;;;;;;14.82;4.13;;;15.60;99.90;;;;;;5016708;28;20392;-83
2023/07/30 04:22:23;;;;;;;11.05;3.10;;;15.60;99.90;;;;;;5025344;28;20184;-83
2023/07/30 04:24:48;;;;;;;13.50;3.30;;;15.60;99.90;;;;;;5024075;28;20512;-83
2023/07/30 04:27:14;;;;;;;13.18;3.40;;;15.60;99.90;;;;;;5005678;28;20054;-83
2023/07/30 04:29:40;;;;;;;10.27;3.20;;;15.60;99.90;;;;;;4997332;28;20116;-83
2023/07/30 04:32:06;;;;;;;11.45;3.63;;;15.60;99.90;;;;;;5016338;28;20072;-82
2023/07/30 04:34:31;;;;;;;11.52;4.20;;;15.60;99.90;;;;;;5021428;28;20059;-83
2023/07/30 04:36:57;;;;;;;11.98;3.20;;;15.60;99.90;;;;;;5016152;28;20122;-83
2023/07/30 04:39:22;;;;;;;12.27;3.65;;;15.60;99.90;;;;;;5031123;28;20084;-83
2023/07/30 04:41:48;;;;;;;13.20;3.40;;;15.60;99.90;;;;;;4997517;28;20038;-83
2023/07/30 04:44:15;;;;;;;13.65;3.63;;;15.60;99.90;;;;;;5018585;28;20065;-83
2023/07/30 04:46:40;;;;;;;12.23;2.85;;;15.60;99.90;;;;;;5014560;28;20091;-83
2023/07/30 04:49:06;;;;;;;13.63;3.47;;;15.60;99.90;;;;;;5013843;28;20042;-83
2023/07/30 04:51:32;;;;;;;15.27;3.63;;;15.60;99.90;;;;;;5007912;28;20120;-83
2023/07/30 04:53:57;;;;;;;11.85;3.50;;;15.70;99.90;;;;;;4998815;28;20379;-83
2023/07/30 04:56:24;;;;;;;14.23;3.58;;;15.70;99.90;;;;;;4999876;28;20041;-83
2023/07/30 04:58:50;;;;;;;15.95;3.55;;;15.70;99.90;;;;;;4996955;28;20033;-83
2023/07/30 05:01:15;;;;;;;14.48;3.75;;;15.70;99.90;;;;;;5016831;28;20037;-84
2023/07/30 05:03:41;;;;;;;12.68;3.70;;;15.70;99.90;;;;;;5015032;28;20037;-83
2023/07/30 05:06:06;;;;;;;13.13;3.22;;;15.80;99.90;;;;;;4996960;28;20041;-83
2023/07/30 05:08:32;;;;;;;14.82;3.63;;;15.80;99.90;;;;;;5014016;28;20457;-84
2023/07/30 05:10:57;;;;;;;13.15;3.42;;;15.90;99.90;;;;;;5012985;28;20042;-84
2023/07/30 05:13:23;;;;;;;12.32;3.70;;;15.90;99.90;;;;;;5004536;28;20034;-83
2023/07/30 05:15:48;;;;;;;13.93;3.88;;;15.90;99.90;;;;;;5033042;28;20136;-84
2023/07/30 05:18:14;;;;;;;13.02;3.53;;;15.90;99.90;;;;;;5025088;28;20038;-83
2023/07/30 05:20:40;;;;;;;14.65;3.97;;;15.90;99.90;;;;;;5012882;28;20042;-83
2023/07/30 05:23:06;;;;;;;9.93;3.50;;;16.00;99.90;;;;;;5013199;28;20041;-83
2023/07/30 05:25:32;;;;;;;15.57;3.40;;;16.00;99.90;;;;;;5012820;28;20490;-83
2023/07/30 05:27:58;;;;;;;13.10;3.58;;;15.90;99.90;;;;;;5013282;28;20065;-84
2023/07/30 05:30:24;;;;;;;15.35;3.30;;;16.00;99.90;;;;;;5018189;28;20049;-84
2023/07/30 05:32:49;;;;;;;14.45;4.15;;;16.00;99.90;;;;;;5014114;28;20040;-84
2023/07/30 05:35:15;;;;;;;14.40;4.00;;;16.00;99.90;;;;;;4997800;28;20545;-83
2023/07/30 05:37:40;;;;;;;15.85;3.95;;;16.00;99.90;;;;;;5012915;28;20030;-83
2023/07/30 05:40:07;;;;;;;15.52;3.92;;;16.10;99.90;;;;;;5002407;28;20049;-84
2023/07/30 05:42:32;;;;;;;15.57;3.88;;;16.20;99.90;;;;;;5012383;28;20137;-84
2023/07/30 05:44:58;;;;;;;14.65;3.92;;;16.20;99.90;;;;;;4997514;28;20128;-83
2023/07/30 05:47:23;;;;;;;14.18;3.78;;;16.30;99.90;;;;;;5015453;28;20046;-83
2023/07/30 05:49:49;;;;;;;14.65;3.75;;;16.30;99.90;;;;;;5015196;28;20125;-84
2023/07/30 05:52:14;;;;;;;14.32;3.50;;;16.30;99.90;;;;;;5016394;28;20038;-83
2023/07/30 05:54:40;;;;;;;14.43;3.80;;;16.30;99.90;;;;;;4996101;28;20088;-83
2023/07/30 05:57:06;;;;;;;16.48;4.20;;;16.40;99.90;;;;;;5010472;28;20120;-83
2023/07/30 05:59:31;;;;;;;13.82;3.78;;;16.30;99.90;;;;;;5029211;28;20040;-83
2023/07/30 06:02:01;;;;;;;16.15;3.85;;;16.30;99.90;;;;;;5033191;28;20494;-83
2023/07/30 06:04:26;;;;;;;16.60;4.25;;;16.40;99.90;;;;;;5004067;28;20082;-83
2023/07/30 06:06:52;;;;;;;17.65;3.85;;;16.40;99.90;;;;;;4996914;28;20050;-83
2023/07/30 06:09:18;;;;;;;14.95;4.03;;;16.50;99.90;;;;;;5013435;28;20046;-83
2023/07/30 06:11:43;;;;;;;16.23;4.55;;;16.50;99.90;;;;;;5011893;28;20034;-83
2023/07/30 06:14:09;;;;;;;14.52;3.83;;;16.50;99.90;;;;;;5023801;28;20410;-83
2023/07/30 06:16:35;;;;;;;14.20;3.95;;;16.50;99.90;;;;;;5000741;28;20037;-82
2023/07/30 06:19:00;;;;;;;16.63;4.82;;;16.60;99.90;;;;;;5031018;28;20609;-83
2023/07/30 06:21:26;;;;;;;17.02;4.22;;;16.60;99.90;;;;;;5005348;28;20120;-83
2023/07/30 06:23:51;;;;;;;12.95;3.53;;;16.60;99.90;;;;;;5020155;28;20407;-83
2023/07/30 06:26:17;;;;;;;16.33;4.68;;;16.60;99.90;;;;;;5013604;28;20046;-82
2023/07/30 06:28:42;;;;;;;14.38;3.90;;;16.70;99.90;;;;;;5006859;28;20041;-83
2023/07/30 06:31:08;;;;;;;14.98;3.85;;;16.70;99.90;;;;;;5022959;28;20106;-82
2023/07/30 06:33:34;;;;;;;12.98;3.47;;;16.70;99.90;;;;;;5023546;28;20516;-81
2023/07/30 06:35:59;;;;;;;17.00;4.40;;;16.70;99.90;;;;;;5017605;28;20624;-82
2023/07/30 06:38:25;;;;;;;12.63;3.67;;;16.70;99.90;;;;;;5011184;28;20030;-82
2023/07/30 06:40:50;;;;;;;13.13;4.15;;;16.70;99.90;;;;;;5032338;28;20041;-82
2023/07/30 06:43:16;;;;;;;15.05;3.83;;;16.70;99.90;;;;;;5030200;28;20484;-82
2023/07/30 06:45:42;;;;;;;14.57;4.30;;;16.80;99.90;;;;;;5028698;28;20091;-82
2023/07/30 06:48:07;;;;;;;14.15;4.00;;;16.80;99.90;;;;;;5017440;28;20038;-83
2023/07/30 06:50:33;;;;;;;16.05;4.10;;;16.80;99.90;;;;;;5025330;28;20084;-82
2023/07/30 06:52:58;;;;;;;18.85;4.32;;;16.90;99.90;;;;;;5034640;28;20120;-82
2023/07/30 06:55:24;;;;;;;13.27;3.70;;;16.90;99.90;;;;;;5023056;28;20034;-82
2023/07/30 06:57:50;;;;;;;17.38;4.65;;;17.00;99.90;;;;;;5025486;28;20088;-73
2023/07/30 07:00:21;;;;;;;15.35;4.15;;;17.10;99.90;;;;;;5030894;28;20409;-73
2023/07/30 07:02:48;;;;;;;17.70;4.10;;;17.10;99.90;;;;;;5022040;28;20049;-72
2023/07/30 07:05:14;;;;;;;16.48;4.15;;;17.20;99.90;;;;;;5024301;28;20087;-74
2023/07/30 07:07:40;;;;;;;18.80;4.45;;;17.30;99.90;;;;;;5018816;28;20038;-73
2023/07/30 07:10:10;;;;;;;14.90;4.07;;;17.40;99.90;;;;;;4998037;28;20042;-73
2023/07/30 07:12:37;;;;;;;14.52;3.92;;;17.40;99.90;;;;;;5019376;28;20563;-73
2023/07/30 07:15:03;;;;;;;15.98;3.72;;;17.50;99.90;;;;;;5022154;28;20068;-74
2023/07/30 07:17:29;;;;;;;14.90;3.90;;;17.50;99.90;;;;;;5009418;28;20390;-73
2023/07/30 07:19:55;;;;;;;14.30;4.22;;;17.60;99.90;;;;;;4999262;28;20042;-73
2023/07/30 07:22:24;;;;;;;16.88;3.65;;;17.60;99.90;;;;;;4998982;28;20085;-75
2023/07/30 07:24:52;;;;;;;18.00;3.92;;;17.50;99.90;;;;;;5020281;28;20045;-71
2023/07/30 07:27:18;;;;;;;13.40;3.50;;;17.50;99.90;;;;;;5029586;28;20114;-73
2023/07/30 07:29:43;;;;;;;13.57;3.13;;;17.50;99.90;;;;;;5010182;28;20445;-83
2023/07/30 07:32:09;;;;;;;13.48;3.15;;;17.50;99.90;;;;;;5025766;28;20041;-83
2023/07/30 07:34:35;;;;;;;12.88;3.38;;;17.60;99.90;;;;;;5029275;28;20037;-82
2023/07/30 07:37:01;;;;;;;12.48;3.40;;;17.50;99.90;;;;;;5026965;28;20399;-82
2023/07/30 07:39:27;;;;;;;13.10;4.13;;;17.50;99.90;;;;;;5014137;28;20056;-82
2023/07/30 07:41:53;;;;;;;18.23;4.05;;;17.50;99.90;;;;;;5007422;28;20041;-82
2023/07/30 07:44:18;;;;;;;13.77;2.97;;;17.60;99.90;;;;;;5004978;28;20038;-82
2023/07/30 07:46:44;;;;;;;12.70;3.35;;;17.60;99.90;;;;;;5029186;28;20486;-82
2023/07/30 07:49:10;;;;;;;13.93;3.05;;;17.70;99.90;;;;;;5020981;28;20391;-83
2023/07/30 07:51:35;;;;;;;12.98;3.25;;;17.80;99.90;;;;;;5023924;28;20481;-82
2023/07/30 07:54:01;;;;;;;15.38;3.35;;;17.70;99.90;;;;;;5030880;28;20048;-83
2023/07/30 07:56:26;;;;;;;14.82;3.28;;;17.80;99.90;;;;;;5029140;28;20503;-83
2023/07/30 07:58:52;;;;;;;13.63;3.15;;;17.90;99.90;;;;;;5001646;28;20037;-82
2023/07/30 08:01:17;;;;;;;13.68;3.65;;;18.00;99.90;;;;;;5011026;28;20041;-82
2023/07/30 08:03:44;;;;;;;13.07;3.15;;;18.20;99.90;;;;;;5028710;28;20042;-82
2023/07/30 08:06:09;;;;;;;12.90;3.40;;;18.30;99.90;;;;;;5028050;28;20110;-82
2023/07/30 08:08:35;;;;;;;12.60;2.92;;;18.30;99.90;;;;;;5017039;28;20498;-83
2023/07/30 08:11:06;;;;;;;13.05;3.47;;;18.30;99.90;;;;;;4998463;28;20052;-82
2023/07/30 08:13:32;;;;;;;17.25;3.42;;;18.40;99.90;;;;;;5003635;28;20034;-82
2023/07/30 08:15:57;;;;;;;14.45;3.50;;;18.40;99.90;;;;;;5017485;28;20045;-82
2023/07/30 08:18:23;;;;;;;9.98;3.10;;;18.50;99.90;;;;;;5029153;28;20099;-82
2023/07/30 08:20:49;;;;;;;15.43;3.50;;;18.50;99.90;;;;;;5001340;28;20053;-82
2023/07/30 08:23:15;;;;;;;13.77;3.25;;;18.60;99.90;;;;;;5026538;28;20045;-82
2023/07/30 08:25:41;;;;;;;15.57;3.10;;;18.50;99.90;;;;;;5013970;28;20053;-83
2023/07/30 08:28:06;;;;;;;14.98;2.70;;;18.20;99.90;;;;;;5026697;28;20528;-83
2023/07/30 08:30:32;;;;;;;11.35;2.67;;;18.10;99.90;;;;;;5023151;28;20037;-81
2023/07/30 08:32:57;;;;;;;9.48;2.20;;;17.80;99.90;;;;;;5031785;28;20501;-82
2023/07/30 08:35:23;;;;;;;10.15;2.22;;;17.60;99.90;;;;;;5029741;28;20034;-81
2023/07/30 08:37:48;;;;;;;8.85;2.47;;;17.60;99.90;;;;;;5031016;28;20091;-82
2023/07/30 08:40:14;;;;;;;11.75;2.45;;;17.40;99.90;;;;;;5014962;28;20042;-82
2023/07/30 08:42:40;;;;;;;9.98;2.17;;;17.30;99.90;;;;;;4999731;28;20056;-81
2023/07/30 08:45:08;;;;;;;9.60;2.22;;;17.30;99.90;;;;;;5029671;28;20046;-81
2023/07/30 08:47:35;;;;;;;8.55;2.03;;;17.30;99.90;;;;;;5032650;28;20453;-81
2023/07/30 08:50:00;;;;;;;12.55;2.75;;;17.20;99.90;;;;;;5015581;28;20040;-81
2023/07/30 08:52:28;;;;;;;11.60;2.30;;;17.10;99.90;;;;;;5014975;28;20108;-81
2023/07/30 08:54:55;;;;;;;13.52;2.20;;;17.00;99.90;;;;;;5012998;28;20038;-82
2023/07/30 08:57:21;;;;;;;8.85;2.40;;;16.90;99.90;;;;;;5016563;28;20546;-81
2023/07/30 08:59:58;;;;;;;13.48;2.55;;;16.90;99.90;;;;;;5024776;28;20117;-81
2023/07/30 09:02:38;;;;;;;10.65;2.67;;;16.90;99.90;;;;;;5026026;28;20096;-81
2023/07/30 09:05:05;;;;;;;7.00;2.03;;;16.90;99.90;;;;;;5017368;28;20034;-81
2023/07/30 09:07:30;;;;;;;9.68;2.53;;;16.90;99.90;;;;;;5032328;28;20048;-82
2023/07/30 09:09:56;;;;;;;10.35;2.65;;;17.00;99.90;;;;;;5028172;28;20044;-81
2023/07/30 09:12:28;;;;;;;9.95;2.80;;;17.00;99.90;;;;;;5002079;28;20517;-82
2023/07/30 09:14:54;;;;;;;9.65;2.22;;;17.00;99.90;;;;;;5025008;28;20086;-82
2023/07/30 09:17:20;;;;;;;8.10;2.53;;;17.00;99.90;;;;;;5014940;28;20037;-81
2023/07/30 09:19:50;;;;;;;14.45;2.83;;;17.00;99.90;;;;;;5029026;28;20038;-81
2023/07/30 09:22:26;;;;;;;9.65;2.28;;;17.00;99.90;;;;;;5025628;28;20049;-81
2023/07/30 09:24:53;;;;;;;10.57;2.45;;;17.10;99.90;;;;;;5020526;28;20107;-81
2023/07/30 09:27:25;;;;;;;9.45;2.20;;;17.00;99.90;;;;;;5012518;28;20057;-82
2023/07/30 09:29:52;;;;;;;8.40;2.28;;;17.00;99.90;;;;;;5008569;28;20099;-81
2023/07/30 09:32:18;;;;;;;11.90;2.58;;;16.90;99.90;;;;;;5032889;28;20038;-81
2023/07/30 09:34:45;;;;;;;10.75;2.95;;;16.60;99.90;;;;;;5031104;28;20758;-81
2023/07/30 09:37:10;;;;;;;10.52;2.28;;;16.60;99.90;;;;;;5022104;28;20061;-82
2023/07/30 09:39:37;;;;;;;7.20;2.60;;;16.60;99.90;;;;;;5031821;28;20142;-82
2023/07/30 09:42:03;;;;;;;10.45;2.20;;;16.70;99.90;;;;;;5010302;28;20052;-82
2023/07/30 09:44:31;;;;;;;9.45;2.13;;;16.70;99.90;;;;;;5031279;28;20505;-82
2023/07/30 09:46:57;;;;;;;7.50;1.77;;;16.60;99.90;;;;;;5030959;28;20501;-82
2023/07/30 09:49:22;;;;;;;7.25;1.60;;;16.60;99.90;;;;;;5026346;28;20049;-82
2023/07/30 09:51:48;;;;;;;7.97;2.08;;;16.60;99.90;;;;;;5035867;28;20112;-80
2023/07/30 09:54:15;;;;;;;7.05;1.63;;;16.60;99.90;;;;;;5006497;28;20501;-80
2023/07/30 09:56:42;;;;;;;8.20;1.88;;;16.60;99.90;;;;;;5032420;28;20037;-80
2023/07/30 09:59:09;;;;;;;5.40;1.42;;;16.50;99.90;;;;;;5029848;28;20498;-80
2023/07/30 10:01:43;;;;;;;7.80;1.63;;;16.40;99.90;;;;;;5029973;28;20038;-81
2023/07/30 10:04:10;;;;;;;5.75;1.40;;;16.40;99.90;;;;;;5021660;28;20503;-80
2023/07/30 10:06:40;;;;;;;5.35;1.40;;;16.40;99.90;;;;;;5024250;28;20044;-80
2023/07/30 10:09:08;;;;;;;5.53;1.90;;;16.50;99.90;;;;;;5001204;28;20046;-80
2023/07/30 10:11:35;;;;;;;6.93;1.48;;;16.70;99.90;;;;;;5030687;28;20045;-81
2023/07/30 10:14:01;;;;;;;8.13;1.40;;;16.50;99.90;;;;;;5016041;28;20407;-81
2023/07/30 10:16:31;;;;;;;5.32;1.55;;;16.50;99.90;;;;;;5016188;28;20386;-81
2023/07/30 10:18:58;;;;;;;8.10;1.50;;;16.50;99.90;;;;;;5000085;28;20049;-81
2023/07/30 10:21:26;;;;;;;5.50;1.45;;;16.60;99.90;;;;;;5031565;28;20056;-81
2023/07/30 10:24:00;;;;;;;4.70;1.38;;;16.60;99.90;;;;;;5025852;28;20048;-82
2023/07/30 10:26:30;;;;;;;5.18;1.27;;;16.60;99.90;;;;;;5029235;28;20062;-82
2023/07/30 10:29:19;;;;;;;6.38;1.50;;;16.70;99.90;;;;;;5030859;28;20056;-82
2023/07/30 10:31:49;;;;;;;5.88;1.65;;;16.80;99.90;;;;;;5019091;28;20041;-81
2023/07/30 10:34:15;;;;;;;6.28;1.58;;;17.00;99.90;;;;;;5032927;28;20041;-82
2023/07/30 10:36:46;;;;;;;6.70;1.80;;;17.10;99.90;;;;;;5006651;28;20414;-82
2023/07/30 10:39:25;;;;;;;7.10;1.95;;;17.20;99.90;;;;;;5019708;28;20497;-82
2023/07/30 10:41:54;;;;;;;7.55;2.28;;;17.40;99.90;;;;;;5014816;28;20045;-82
2023/07/30 10:44:24;;;;;;;6.78;2.30;;;17.60;99.90;;;;;;5032670;28;20120;-82
2023/07/30 10:46:50;;;;;;;11.77;2.35;;;17.80;99.90;;;;;;5008954;28;20038;-82
2023/07/30 10:49:16;;;;;;;6.93;1.73;;;18.00;99.90;;;;;;5031752;28;20041;-82
2023/07/30 10:51:41;;;;;;;7.75;2.00;;;18.10;99.90;;;;;;5033873;28;20078;-82
2023/07/30 10:54:08;;;;;;;8.00;2.10;;;18.20;99.90;;;;;;5012250;28;20382;-81
2023/07/30 10:56:36;;;;;;;14.68;2.00;;;18.40;99.90;;;;;;5034416;28;20037;-82
2023/07/30 10:59:04;;;;;;;9.07;2.03;;;18.50;99.90;;;;;;5034059;28;20478;-81
2023/07/30 11:01:30;;;;;;;8.00;1.80;;;18.40;99.90;;;;;;5035089;28;20397;-82
2023/07/30 11:03:56;;;;;;;8.85;2.35;;;18.60;99.90;;;;;;5034003;28;20128;-82
2023/07/30 11:06:26;;;;;;;9.48;2.70;;;18.70;99.90;;;;;;5033231;28;20045;-81
2023/07/30 11:08:52;;;;;;;7.85;2.10;;;18.90;99.90;;;;;;5025854;28;20601;-82
2023/07/30 11:11:18;;;;;;;8.43;1.80;;;19.10;99.90;;;;;;5029854;28;20049;-81
2023/07/30 11:13:48;;;;;;;11.45;2.28;;;19.10;99.90;;;;;;5014890;28;20467;-82
2023/07/30 11:16:15;;;;;;;9.10;2.10;;;19.00;99.90;;;;;;5032567;28;20039;-82
2023/07/30 11:18:42;;;;;;;11.50;2.15;;;18.90;99.90;;;;;;5016391;28;20029;-82
2023/07/30 11:21:09;;;;;;;9.48;2.17;;;19.00;99.90;;;;;;5034013;28;20407;-81
2023/07/30 11:23:36;;;;;;;7.50;1.90;;;19.10;99.90;;;;;;5003545;28;20085;-82
2023/07/30 11:26:04;;;;;;;8.63;1.98;;;19.10;99.90;;;;;;5023524;28;20413;-82
2023/07/30 11:28:40;;;;;;;9.63;2.08;;;19.10;99.90;;;;;;5032649;28;20396;-82
2023/07/30 11:31:11;;;;;;;9.40;2.08;;;18.90;99.90;;;;;;5015820;28;20081;-83
2023/07/30 11:33:39;;;;;;;12.40;2.30;;;18.90;99.90;;;;;;4998196;28;20057;-82
2023/07/30 11:36:09;;;;;;;9.07;2.40;;;18.90;99.90;;;;;;5000190;28;20045;-83
2023/07/30 11:38:35;;;;;;;9.65;1.90;;;19.00;99.90;;;;;;5017903;28;20041;-83
2023/07/30 11:41:01;;;;;;;11.07;2.00;;;19.10;99.90;;;;;;5028258;28;20037;-83
2023/07/30 11:43:27;;;;;;;11.48;1.90;;;19.10;99.90;;;;;;5037622;28;20045;-84
2023/07/30 11:46:13;;;;;;;11.20;2.05;;;19.10;99.90;;;;;;5039367;28;20464;-83
2023/07/30 11:48:44;;;;;;;9.98;1.92;;;19.40;99.90;;;;;;5034860;28;20280;-83
2023/07/30 11:51:21;;;;;;;6.25;1.60;;;19.50;99.90;;;;;;5017579;28;20532;-83
2023/07/30 11:53:49;;;;;;;13.13;2.00;;;19.60;99.90;;;;;;5033731;28;20140;-83
2023/07/30 11:56:18;;;;;;;8.73;2.25;;;19.60;99.90;;;;;;5031139;28;20076;-83
2023/07/30 11:58:44;;;;;;;9.68;2.08;;;19.50;99.90;;;;;;5014367;28;20482;-83
2023/07/30 12:01:09;;;;;;;9.70;2.08;;;19.50;99.90;;;;;;5030930;28;20167;-83
2023/07/30 12:03:35;;;;;;;8.40;1.75;;;19.60;99.90;;;;;;5016801;28;20041;-83
2023/07/30 12:06:05;;;;;;;7.47;1.77;;;19.70;99.90;;;;;;5008244;28;20121;-83
2023/07/30 12:08:33;;;;;;;10.95;1.88;;;19.80;99.90;;;;;;5018337;28;20072;-83
2023/07/30 12:11:03;;;;;;;8.18;2.10;;;19.80;99.90;;;;;;5021789;28;20066;-83
2023/07/30 12:13:29;;;;;;;8.77;1.77;;;19.70;99.90;;;;;;5016809;28;21014;-83
2023/07/30 12:15:56;;;;;;;8.10;1.42;;;19.40;99.90;;;;;;5016575;28;20030;-84
2023/07/30 12:18:24;;;;;;;8.93;1.77;;;19.20;99.90;;;;;;5030028;28;20033;-83
2023/07/30 12:20:52;;;;;;;10.57;2.50;;;19.00;99.90;;;;;;5034068;28;20053;-84
2023/07/30 12:23:19;;;;;;;10.68;2.13;;;19.00;99.90;;;;;;5036563;28;20053;-84
2023/07/30 12:25:46;;;;;;;7.90;1.70;;;19.30;99.90;;;;;;5034861;28;20049;-84
2023/07/30 12:28:11;;;;;;;5.75;1.50;;;19.30;99.90;;;;;;5027974;28;20414;-83
2023/07/30 12:30:37;;;;;;;6.07;1.60;;;19.20;99.90;;;;;;5015517;28;20043;-83
2023/07/30 12:33:03;;;;;;;7.38;1.90;;;18.90;99.90;;;;;;5032413;28;20053;-83
2023/07/30 12:35:30;;;;;;;7.57;1.23;;;18.60;99.90;;;;;;5033882;28;20037;-83